sensor_id;sensor_type;location;lat;lon;timestamp;temperature;humidity
20481;DHT22;10399;50.754;3.366;2022-07-04T00:00:17;17.50;99.90
20481;DHT22;10399;50.754;3.366;2022-07-04T00:02:46;17.50;99.90
20481;DHT22;10399;50.754;3.366;2022-07-04T00:05:14;17.50;99.90
20481;DHT22;10399;50.754;3.366;2022-07-04T00:07:46;17.70;99.90
20481;DHT22;10399;50.754;3.366;2022-07-04T00:10:21;17.90;99.90
20481;DHT22;10399;50.754;3.366;2022-07-04T00:12:48;17.80;99.90
20481;DHT22;10399;50.754;3.366;2022-07-04T00:15:15;17.70;99.90
20481;DHT22;10399;50.754;3.366;2022-07-04T00:17:43;17.50;99.90
20481;DHT22;10399;50.754;3.366;2022-07-04T00:20:10;17.40;99.90
20481;DHT22;10399;50.754;3.366;2022-07-04T00:22:38;17.20;99.90
20481;DHT22;10399;50.754;3.366;2022-07-04T00:25:05;17.20;99.90
20481;DHT22;10399;50.754;3.366;2022-07-04T00:27:32;17.10;99.90
20481;DHT22;10399;50.754;3.366;2022-07-04T00:29:59;17.20;99.90
20481;DHT22;10399;50.754;3.366;2022-07-04T00:32:27;17.20;99.90
20481;DHT22;10399;50.754;3.366;2022-07-04T00:34:54;17.30;99.90
20481;DHT22;10399;50.754;3.366;2022-07-04T00:37:21;17.60;99.90
20481;DHT22;10399;50.754;3.366;2022-07-04T00:39:48;17.50;99.90
20481;DHT22;10399;50.754;3.366;2022-07-04T00:42:15;17.50;99.90
20481;DHT22;10399;50.754;3.366;2022-07-04T00:44:42;17.50;99.90
20481;DHT22;10399;50.754;3.366;2022-07-04T00:47:10;17.50;99.90
20481;DHT22;10399;50.754;3.366;2022-07-04T00:49:37;17.50;99.90
20481;DHT22;10399;50.754;3.366;2022-07-04T00:52:04;17.50;99.90
20481;DHT22;10399;50.754;3.366;2022-07-04T00:54:31;17.70;99.90
20481;DHT22;10399;50.754;3.366;2022-07-04T00:56:59;17.60;99.90
20481;DHT22;10399;50.754;3.366;2022-07-04T00:59:27;17.50;99.90
20481;DHT22;10399;50.754;3.366;2022-07-04T01:01:55;17.20;99.90
20481;DHT22;10399;50.754;3.366;2022-07-04T01:04:23;17.00;99.90
20481;DHT22;10399;50.754;3.366;2022-07-04T01:06:52;16.90;99.90
20481;DHT22;10399;50.754;3.366;2022-07-04T01:09:19;16.80;99.90
20481;DHT22;10399;50.754;3.366;2022-07-04T01:11:49;17.00;99.90
20481;DHT22;10399;50.754;3.366;2022-07-04T01:14:17;17.10;99.90
20481;DHT22;10399;50.754;3.366;2022-07-04T01:16:44;17.20;99.90
20481;DHT22;10399;50.754;3.366;2022-07-04T01:19:11;17.20;99.90
20481;DHT22;10399;50.754;3.366;2022-07-04T01:21:39;17.30;99.90
20481;DHT22;10399;50.754;3.366;2022-07-04T01:24:06;17.30;99.90
20481;DHT22;10399;50.754;3.366;2022-07-04T01:26:33;17.00;99.90
20481;DHT22;10399;50.754;3.366;2022-07-04T01:29:00;16.90;99.90
20481;DHT22;10399;50.754;3.366;2022-07-04T01:31:27;16.80;99.90
20481;DHT22;10399;50.754;3.366;2022-07-04T01:33:54;16.80;99.90
20481;DHT22;10399;50.754;3.366;2022-07-04T01:36:21;16.80;99.90
20481;DHT22;10399;50.754;3.366;2022-07-04T01:38:48;16.60;99.90
20481;DHT22;10399;50.754;3.366;2022-07-04T01:41:16;16.70;99.90
20481;DHT22;10399;50.754;3.366;2022-07-04T01:43:43;16.80;99.90
20481;DHT22;10399;50.754;3.366;2022-07-04T01:46:09;17.00;99.90
20481;DHT22;10399;50.754;3.366;2022-07-04T01:48:36;16.90;99.90
20481;DHT22;10399;50.754;3.366;2022-07-04T01:51:03;17.10;99.90
20481;DHT22;10399;50.754;3.366;2022-07-04T01:53:30;17.00;99.90
20481;DHT22;10399;50.754;3.366;2022-07-04T01:55:57;16.70;99.90
20481;DHT22;10399;50.754;3.366;2022-07-04T01:58:24;16.60;99.90
20481;DHT22;10399;50.754;3.366;2022-07-04T02:00:51;16.80;99.90
20481;DHT22;10399;50.754;3.366;2022-07-04T02:03:36;16.60;99.90
20481;DHT22;10399;50.754;3.366;2022-07-04T02:06:03;16.70;99.90
20481;DHT22;10399;50.754;3.366;2022-07-04T02:08:30;16.70;99.90
20481;DHT22;10399;50.754;3.366;2022-07-04T02:11:17;17.00;99.90
20481;DHT22;10399;50.754;3.366;2022-07-04T02:13:44;17.20;99.90
20481;DHT22;10399;50.754;3.366;2022-07-04T02:16:11;17.20;99.90
20481;DHT22;10399;50.754;3.366;2022-07-04T02:18:38;17.20;99.90
20481;DHT22;10399;50.754;3.366;2022-07-04T02:21:05;16.80;99.90
20481;DHT22;10399;50.754;3.366;2022-07-04T02:23:32;16.70;99.90
20481;DHT22;10399;50.754;3.366;2022-07-04T02:25:59;16.50;99.90
20481;DHT22;10399;50.754;3.366;2022-07-04T02:28:26;16.60;99.90
20481;DHT22;10399;50.754;3.366;2022-07-04T02:30:54;16.50;99.90
20481;DHT22;10399;50.754;3.366;2022-07-04T02:33:21;16.50;99.90
20481;DHT22;10399;50.754;3.366;2022-07-04T02:35:48;16.50;99.90
20481;DHT22;10399;50.754;3.366;2022-07-04T02:38:14;16.40;99.90
20481;DHT22;10399;50.754;3.366;2022-07-04T02:40:42;16.20;99.90
20481;DHT22;10399;50.754;3.366;2022-07-04T02:43:13;16.20;99.90
20481;DHT22;10399;50.754;3.366;2022-07-04T02:45:47;15.90;99.90
20481;DHT22;10399;50.754;3.366;2022-07-04T02:48:15;15.90;99.90
20481;DHT22;10399;50.754;3.366;2022-07-04T02:50:43;16.00;99.90
20481;DHT22;10399;50.754;3.366;2022-07-04T02:53:10;15.90;99.90
20481;DHT22;10399;50.754;3.366;2022-07-04T02:55:41;15.90;99.90
20481;DHT22;10399;50.754;3.366;2022-07-04T02:58:17;15.80;99.90
20481;DHT22;10399;50.754;3.366;2022-07-04T03:00:54;15.80;99.90
20481;DHT22;10399;50.754;3.366;2022-07-04T03:03:22;15.70;99.90
20481;DHT22;10399;50.754;3.366;2022-07-04T03:05:56;15.70;99.90
20481;DHT22;10399;50.754;3.366;2022-07-04T03:08:33;15.60;99.90
20481;DHT22;10399;50.754;3.366;2022-07-04T03:11:13;15.40;99.90
20481;DHT22;10399;50.754;3.366;2022-07-04T03:13:45;15.50;99.90
20481;DHT22;10399;50.754;3.366;2022-07-04T03:16:25;15.60;99.90
20481;DHT22;10399;50.754;3.366;2022-07-04T03:18:52;15.70;99.90
20481;DHT22;10399;50.754;3.366;2022-07-04T03:21:22;15.40;99.90
20481;DHT22;10399;50.754;3.366;2022-07-04T03:23:55;15.40;99.90
20481;DHT22;10399;50.754;3.366;2022-07-04T03:26:29;15.60;99.90
20481;DHT22;10399;50.754;3.366;2022-07-04T03:29:03;15.70;99.90
20481;DHT22;10399;50.754;3.366;2022-07-04T03:31:36;15.60;99.90
20481;DHT22;10399;50.754;3.366;2022-07-04T03:34:07;15.40;99.90
20481;DHT22;10399;50.754;3.366;2022-07-04T03:36:36;15.50;99.90
20481;DHT22;10399;50.754;3.366;2022-07-04T03:39:03;15.60;99.90
20481;DHT22;10399;50.754;3.366;2022-07-04T03:41:33;15.70;99.90
20481;DHT22;10399;50.754;3.366;2022-07-04T03:44:00;15.70;99.90
20481;DHT22;10399;50.754;3.366;2022-07-04T03:46:27;15.60;99.90
20481;DHT22;10399;50.754;3.366;2022-07-04T03:48:54;15.60;99.90
20481;DHT22;10399;50.754;3.366;2022-07-04T03:51:22;15.50;99.90
20481;DHT22;10399;50.754;3.366;2022-07-04T03:53:50;15.40;99.90
20481;DHT22;10399;50.754;3.366;2022-07-04T03:56:26;15.40;99.90
20481;DHT22;10399;50.754;3.366;2022-07-04T03:58:54;15.40;99.90
20481;DHT22;10399;50.754;3.366;2022-07-04T04:01:24;15.30;99.90
20481;DHT22;10399;50.754;3.366;2022-07-04T04:03:51;15.30;99.90
20481;DHT22;10399;50.754;3.366;2022-07-04T04:06:36;15.40;99.90
20481;DHT22;10399;50.754;3.366;2022-07-04T04:09:04;15.40;99.90
20481;DHT22;10399;50.754;3.366;2022-07-04T04:11:36;15.40;99.90
20481;DHT22;10399;50.754;3.366;2022-07-04T04:14:03;15.30;99.90
20481;DHT22;10399;50.754;3.366;2022-07-04T04:16:30;15.30;99.90
20481;DHT22;10399;50.754;3.366;2022-07-04T04:18:57;15.30;99.90
20481;DHT22;10399;50.754;3.366;2022-07-04T04:21:24;15.30;99.90
20481;DHT22;10399;50.754;3.366;2022-07-04T04:23:51;15.60;99.90
20481;DHT22;10399;50.754;3.366;2022-07-04T04:26:18;15.60;99.90
20481;DHT22;10399;50.754;3.366;2022-07-04T04:28:45;15.30;99.90
20481;DHT22;10399;50.754;3.366;2022-07-04T04:31:11;15.40;99.90
20481;DHT22;10399;50.754;3.366;2022-07-04T04:33:39;15.50;99.90
20481;DHT22;10399;50.754;3.366;2022-07-04T04:36:07;15.40;99.90
20481;DHT22;10399;50.754;3.366;2022-07-04T04:38:34;15.30;99.90
20481;DHT22;10399;50.754;3.366;2022-07-04T04:41:01;15.40;99.90
20481;DHT22;10399;50.754;3.366;2022-07-04T04:43:28;15.40;99.90
20481;DHT22;10399;50.754;3.366;2022-07-04T04:45:55;15.60;99.90
20481;DHT22;10399;50.754;3.366;2022-07-04T04:48:22;15.60;99.90
20481;DHT22;10399;50.754;3.366;2022-07-04T04:50:49;15.80;99.90
20481;DHT22;10399;50.754;3.366;2022-07-04T04:53:16;16.00;99.90
20481;DHT22;10399;50.754;3.366;2022-07-04T04:55:46;16.20;99.90
20481;DHT22;10399;50.754;3.366;2022-07-04T04:58:16;16.10;99.90
20481;DHT22;10399;50.754;3.366;2022-07-04T05:00:43;16.10;99.90
20481;DHT22;10399;50.754;3.366;2022-07-04T05:03:37;16.30;99.90
20481;DHT22;10399;50.754;3.366;2022-07-04T05:06:05;16.00;99.90
20481;DHT22;10399;50.754;3.366;2022-07-04T05:08:38;15.90;99.90
20481;DHT22;10399;50.754;3.366;2022-07-04T05:11:05;15.80;99.90
20481;DHT22;10399;50.754;3.366;2022-07-04T05:13:32;15.80;99.90
20481;DHT22;10399;50.754;3.366;2022-07-04T05:15:59;15.70;99.90
20481;DHT22;10399;50.754;3.366;2022-07-04T05:18:26;15.60;99.90
20481;DHT22;10399;50.754;3.366;2022-07-04T05:20:53;15.80;99.90
20481;DHT22;10399;50.754;3.366;2022-07-04T05:23:20;15.90;99.90
20481;DHT22;10399;50.754;3.366;2022-07-04T05:25:48;15.90;99.90
20481;DHT22;10399;50.754;3.366;2022-07-04T05:28:14;15.90;99.90
20481;DHT22;10399;50.754;3.366;2022-07-04T05:30:41;15.90;99.90
20481;DHT22;10399;50.754;3.366;2022-07-04T05:33:09;15.80;99.90
20481;DHT22;10399;50.754;3.366;2022-07-04T05:35:36;15.80;99.90
20481;DHT22;10399;50.754;3.366;2022-07-04T05:38:04;15.80;99.90
20481;DHT22;10399;50.754;3.366;2022-07-04T05:40:31;15.70;99.90
20481;DHT22;10399;50.754;3.366;2022-07-04T05:42:58;15.50;99.90
20481;DHT22;10399;50.754;3.366;2022-07-04T05:45:25;15.60;99.90
20481;DHT22;10399;50.754;3.366;2022-07-04T05:47:52;15.80;99.90
20481;DHT22;10399;50.754;3.366;2022-07-04T05:50:19;16.00;99.90
20481;DHT22;10399;50.754;3.366;2022-07-04T05:52:46;16.00;99.90
20481;DHT22;10399;50.754;3.366;2022-07-04T05:55:13;16.10;99.90
20481;DHT22;10399;50.754;3.366;2022-07-04T05:57:40;16.10;99.90
20481;DHT22;10399;50.754;3.366;2022-07-04T06:00:11;16.30;99.90
20481;DHT22;10399;50.754;3.366;2022-07-04T06:02:39;16.30;99.90
20481;DHT22;10399;50.754;3.366;2022-07-04T06:05:08;16.20;99.90
20481;DHT22;10399;50.754;3.366;2022-07-04T06:07:35;16.30;99.90
20481;DHT22;10399;50.754;3.366;2022-07-04T06:10:03;16.20;99.90
20481;DHT22;10399;50.754;3.366;2022-07-04T06:12:30;16.30;99.90
20481;DHT22;10399;50.754;3.366;2022-07-04T06:14:57;16.50;99.90
20481;DHT22;10399;50.754;3.366;2022-07-04T06:17:25;16.30;99.90
20481;DHT22;10399;50.754;3.366;2022-07-04T06:19:52;16.20;99.90
20481;DHT22;10399;50.754;3.366;2022-07-04T06:22:19;16.50;99.90
20481;DHT22;10399;50.754;3.366;2022-07-04T06:24:50;16.30;99.90
20481;DHT22;10399;50.754;3.366;2022-07-04T06:27:17;16.40;99.90
20481;DHT22;10399;50.754;3.366;2022-07-04T06:29:44;16.70;99.90
20481;DHT22;10399;50.754;3.366;2022-07-04T06:32:11;17.00;99.90
20481;DHT22;10399;50.754;3.366;2022-07-04T06:34:38;17.10;99.90
20481;DHT22;10399;50.754;3.366;2022-07-04T06:37:24;17.20;99.90
20481;DHT22;10399;50.754;3.366;2022-07-04T06:39:51;17.20;99.90
20481;DHT22;10399;50.754;3.366;2022-07-04T06:42:18;17.20;99.90
20481;DHT22;10399;50.754;3.366;2022-07-04T06:44:45;17.20;99.90
20481;DHT22;10399;50.754;3.366;2022-07-04T06:47:13;17.30;99.90
20481;DHT22;10399;50.754;3.366;2022-07-04T06:49:39;17.40;99.90
20481;DHT22;10399;50.754;3.366;2022-07-04T06:52:07;17.60;99.90
20481;DHT22;10399;50.754;3.366;2022-07-04T06:54:34;18.00;99.90
20481;DHT22;10399;50.754;3.366;2022-07-04T06:57:01;17.90;99.90
20481;DHT22;10399;50.754;3.366;2022-07-04T06:59:48;18.10;99.90
20481;DHT22;10399;50.754;3.366;2022-07-04T07:02:15;18.10;99.90
20481;DHT22;10399;50.754;3.366;2022-07-04T07:04:42;18.20;99.90
20481;DHT22;10399;50.754;3.366;2022-07-04T07:07:09;18.00;99.90
20481;DHT22;10399;50.754;3.366;2022-07-04T07:09:36;18.10;99.90
20481;DHT22;10399;50.754;3.366;2022-07-04T07:12:03;18.30;99.90
20481;DHT22;10399;50.754;3.366;2022-07-04T07:14:30;18.20;99.90
20481;DHT22;10399;50.754;3.366;2022-07-04T07:16:57;18.30;99.90
20481;DHT22;10399;50.754;3.366;2022-07-04T07:19:24;18.50;99.90
20481;DHT22;10399;50.754;3.366;2022-07-04T07:21:51;18.60;99.90
20481;DHT22;10399;50.754;3.366;2022-07-04T07:24:19;18.70;99.90
20481;DHT22;10399;50.754;3.366;2022-07-04T07:26:46;18.70;99.90
20481;DHT22;10399;50.754;3.366;2022-07-04T07:29:12;18.70;99.90
20481;DHT22;10399;50.754;3.366;2022-07-04T07:31:39;18.90;99.90
20481;DHT22;10399;50.754;3.366;2022-07-04T07:34:06;18.70;99.90
20481;DHT22;10399;50.754;3.366;2022-07-04T07:36:33;18.80;99.90
20481;DHT22;10399;50.754;3.366;2022-07-04T07:39:01;19.00;99.90
20481;DHT22;10399;50.754;3.366;2022-07-04T07:41:28;19.20;99.90
20481;DHT22;10399;50.754;3.366;2022-07-04T07:43:55;19.20;99.90
20481;DHT22;10399;50.754;3.366;2022-07-04T07:46:22;19.40;99.90
20481;DHT22;10399;50.754;3.366;2022-07-04T07:48:49;19.30;99.90
20481;DHT22;10399;50.754;3.366;2022-07-04T07:51:16;19.10;99.90
20481;DHT22;10399;50.754;3.366;2022-07-04T07:53:43;19.30;99.90
20481;DHT22;10399;50.754;3.366;2022-07-04T07:56:30;19.60;99.90
20481;DHT22;10399;50.754;3.366;2022-07-04T07:58:57;19.60;99.90
20481;DHT22;10399;50.754;3.366;2022-07-04T08:01:24;19.60;99.90
20481;DHT22;10399;50.754;3.366;2022-07-04T08:03:51;19.50;99.90
20481;DHT22;10399;50.754;3.366;2022-07-04T08:06:39;19.30;99.90
20481;DHT22;10399;50.754;3.366;2022-07-04T08:09:07;19.70;99.90
20481;DHT22;10399;50.754;3.366;2022-07-04T08:11:34;19.90;99.90
20481;DHT22;10399;50.754;3.366;2022-07-04T08:14:01;20.00;99.90
20481;DHT22;10399;50.754;3.366;2022-07-04T08:16:28;20.00;99.90
20481;DHT22;10399;50.754;3.366;2022-07-04T08:19:15;20.20;99.90
20481;DHT22;10399;50.754;3.366;2022-07-04T08:21:42;20.30;99.90
20481;DHT22;10399;50.754;3.366;2022-07-04T08:24:29;20.60;99.90
20481;DHT22;10399;50.754;3.366;2022-07-04T08:26:56;20.60;99.90
20481;DHT22;10399;50.754;3.366;2022-07-04T08:29:23;20.80;99.90
20481;DHT22;10399;50.754;3.366;2022-07-04T08:31:50;20.90;99.90
20481;DHT22;10399;50.754;3.366;2022-07-04T08:34:18;21.00;99.90
20481;DHT22;10399;50.754;3.366;2022-07-04T08:36:45;21.20;99.90
20481;DHT22;10399;50.754;3.366;2022-07-04T08:39:12;21.10;99.90
20481;DHT22;10399;50.754;3.366;2022-07-04T08:41:40;21.00;99.90
20481;DHT22;10399;50.754;3.366;2022-07-04T08:44:08;21.00;99.90
20481;DHT22;10399;50.754;3.366;2022-07-04T08:46:40;21.20;99.90
20481;DHT22;10399;50.754;3.366;2022-07-04T08:49:14;21.20;99.90
20481;DHT22;10399;50.754;3.366;2022-07-04T08:51:54;21.20;99.90
20481;DHT22;10399;50.754;3.366;2022-07-04T08:54:24;21.40;99.90
20481;DHT22;10399;50.754;3.366;2022-07-04T08:57:10;21.50;99.90
20481;DHT22;10399;50.754;3.366;2022-07-04T08:59:57;21.60;99.90
20481;DHT22;10399;50.754;3.366;2022-07-04T09:02:27;21.80;99.90
20481;DHT22;10399;50.754;3.366;2022-07-04T09:04:55;21.70;99.90
20481;DHT22;10399;50.754;3.366;2022-07-04T09:07:22;21.60;99.90
20481;DHT22;10399;50.754;3.366;2022-07-04T09:09:49;21.90;99.90
20481;DHT22;10399;50.754;3.366;2022-07-04T09:12:19;21.90;99.90
20481;DHT22;10399;50.754;3.366;2022-07-04T09:14:46;22.00;99.90
20481;DHT22;10399;50.754;3.366;2022-07-04T09:17:13;21.70;99.90
20481;DHT22;10399;50.754;3.366;2022-07-04T09:19:39;21.90;99.90
20481;DHT22;10399;50.754;3.366;2022-07-04T09:22:10;22.10;99.90
20481;DHT22;10399;50.754;3.366;2022-07-04T09:24:52;22.20;99.90
20481;DHT22;10399;50.754;3.366;2022-07-04T09:27:38;22.50;99.90
20481;DHT22;10399;50.754;3.366;2022-07-04T09:30:12;22.70;99.90
20481;DHT22;10399;50.754;3.366;2022-07-04T09:32:42;22.90;99.90
20481;DHT22;10399;50.754;3.366;2022-07-04T09:35:20;23.00;99.90
20481;DHT22;10399;50.754;3.366;2022-07-04T09:37:59;23.00;99.90
20481;DHT22;10399;50.754;3.366;2022-07-04T09:42:59;23.00;99.90
20481;DHT22;10399;50.754;3.366;2022-07-04T09:45:30;23.50;99.90
20481;DHT22;10399;50.754;3.366;2022-07-04T09:47:58;23.90;99.90
20481;DHT22;10399;50.754;3.366;2022-07-04T09:50:27;23.80;99.90
20481;DHT22;10399;50.754;3.366;2022-07-04T09:52:59;24.10;99.90
20481;DHT22;10399;50.754;3.366;2022-07-04T09:55:36;24.40;99.90
20481;DHT22;10399;50.754;3.366;2022-07-04T09:58:10;24.80;99.90
20481;DHT22;10399;50.754;3.366;2022-07-04T10:00:42;24.70;99.90
20481;DHT22;10399;50.754;3.366;2022-07-04T10:03:19;24.90;99.90
20481;DHT22;10399;50.754;3.366;2022-07-04T10:05:47;24.70;99.90
20481;DHT22;10399;50.754;3.366;2022-07-04T10:08:20;24.90;99.90
20481;DHT22;10399;50.754;3.366;2022-07-04T10:10:48;25.00;99.90
20481;DHT22;10399;50.754;3.366;2022-07-04T10:13:15;25.00;99.90
20481;DHT22;10399;50.754;3.366;2022-07-04T10:15:42;24.80;99.90
20481;DHT22;10399;50.754;3.366;2022-07-04T10:18:10;24.70;99.90
20481;DHT22;10399;50.754;3.366;2022-07-04T10:20:37;24.80;99.90
20481;DHT22;10399;50.754;3.366;2022-07-04T10:23:04;25.10;99.90
20481;DHT22;10399;50.754;3.366;2022-07-04T10:25:31;25.30;99.90
20481;DHT22;10399;50.754;3.366;2022-07-04T10:27:58;25.70;99.90
20481;DHT22;10399;50.754;3.366;2022-07-04T10:30:32;25.90;99.90
20481;DHT22;10399;50.754;3.366;2022-07-04T10:33:07;25.70;99.90
20481;DHT22;10399;50.754;3.366;2022-07-04T10:38:47;26.10;99.90
20481;DHT22;10399;50.754;3.366;2022-07-04T10:41:18;26.10;99.90
20481;DHT22;10399;50.754;3.366;2022-07-04T10:46:31;26.00;99.90
20481;DHT22;10399;50.754;3.366;2022-07-04T10:52:10;25.80;99.90
20481;DHT22;10399;50.754;3.366;2022-07-04T10:54:40;25.60;99.90
20481;DHT22;10399;50.754;3.366;2022-07-04T10:57:11;25.80;99.90
20481;DHT22;10399;50.754;3.366;2022-07-04T10:59:40;26.10;99.90
20481;DHT22;10399;50.754;3.366;2022-07-04T11:04:56;26.60;99.90
20481;DHT22;10399;50.754;3.366;2022-07-04T11:18:18;26.50;99.90
20481;DHT22;10399;50.754;3.366;2022-07-04T11:20:46;26.50;99.90
20481;DHT22;10399;50.754;3.366;2022-07-04T11:23:18;26.10;99.90
20481;DHT22;10399;50.754;3.366;2022-07-04T11:25:47;25.80;99.90
20481;DHT22;10399;50.754;3.366;2022-07-04T11:31:09;25.80;99.90
20481;DHT22;10399;50.754;3.366;2022-07-04T11:33:38;25.80;99.90
20481;DHT22;10399;50.754;3.366;2022-07-04T11:36:18;25.90;99.90
20481;DHT22;10399;50.754;3.366;2022-07-04T11:41:42;25.90;99.90
20481;DHT22;10399;50.754;3.366;2022-07-04T11:44:30;26.20;99.90
20481;DHT22;10399;50.754;3.366;2022-07-04T11:47:20;25.70;99.90
20481;DHT22;10399;50.754;3.366;2022-07-04T11:52:18;25.50;99.90
20481;DHT22;10399;50.754;3.366;2022-07-04T11:55:06;25.40;99.90
20481;DHT22;10399;50.754;3.366;2022-07-04T11:57:38;25.50;99.90
20481;DHT22;10399;50.754;3.366;2022-07-04T12:00:11;25.50;99.90
20481;DHT22;10399;50.754;3.366;2022-07-04T12:02:44;25.50;99.90
20481;DHT22;10399;50.754;3.366;2022-07-04T12:05:12;26.00;99.90
20481;DHT22;10399;50.754;3.366;2022-07-04T12:07:42;25.90;99.90
20481;DHT22;10399;50.754;3.366;2022-07-04T12:10:28;26.20;99.90
20481;DHT22;10399;50.754;3.366;2022-07-04T12:12:58;26.30;99.90
20481;DHT22;10399;50.754;3.366;2022-07-04T12:15:39;26.30;99.90
20481;DHT22;10399;50.754;3.366;2022-07-04T12:18:16;26.90;99.90
20481;DHT22;10399;50.754;3.366;2022-07-04T12:20:44;27.20;99.90
20481;DHT22;10399;50.754;3.366;2022-07-04T12:23:11;27.40;99.90
20481;DHT22;10399;50.754;3.366;2022-07-04T12:25:38;27.80;99.90
20481;DHT22;10399;50.754;3.366;2022-07-04T12:28:09;27.30;99.90
20481;DHT22;10399;50.754;3.366;2022-07-04T12:30:59;27.50;99.90
20481;DHT22;10399;50.754;3.366;2022-07-04T12:33:27;27.40;99.90
20481;DHT22;10399;50.754;3.366;2022-07-04T12:36:00;27.60;99.90
20481;DHT22;10399;50.754;3.366;2022-07-04T12:41:07;27.90;99.90
20481;DHT22;10399;50.754;3.366;2022-07-04T12:46:31;28.40;99.90
20481;DHT22;10399;50.754;3.366;2022-07-04T12:49:02;28.70;99.90
20481;DHT22;10399;50.754;3.366;2022-07-04T12:51:31;28.70;99.90
20481;DHT22;10399;50.754;3.366;2022-07-04T12:54:05;29.00;99.90
20481;DHT22;10399;50.754;3.366;2022-07-04T12:56:35;29.30;99.90
20481;DHT22;10399;50.754;3.366;2022-07-04T12:59:12;29.50;99.90
20481;DHT22;10399;50.754;3.366;2022-07-04T13:01:41;29.40;99.90
20481;DHT22;10399;50.754;3.366;2022-07-04T13:04:09;29.90;99.90
20481;DHT22;10399;50.754;3.366;2022-07-04T13:06:37;29.90;99.90
20481;DHT22;10399;50.754;3.366;2022-07-04T13:09:05;29.90;99.90
20481;DHT22;10399;50.754;3.366;2022-07-04T13:11:34;29.70;99.90
20481;DHT22;10399;50.754;3.366;2022-07-04T13:14:20;29.40;99.90
20481;DHT22;10399;50.754;3.366;2022-07-04T13:16:47;29.10;99.90
20481;DHT22;10399;50.754;3.366;2022-07-04T13:19:14;29.10;99.90
20481;DHT22;10399;50.754;3.366;2022-07-04T13:21:44;29.00;99.90
20481;DHT22;10399;50.754;3.366;2022-07-04T13:24:12;29.70;99.90
20481;DHT22;10399;50.754;3.366;2022-07-04T13:26:39;29.70;99.90
20481;DHT22;10399;50.754;3.366;2022-07-04T13:29:07;30.10;99.90
20481;DHT22;10399;50.754;3.366;2022-07-04T13:31:38;31.00;99.90
20481;DHT22;10399;50.754;3.366;2022-07-04T13:34:06;30.60;99.90
20481;DHT22;10399;50.754;3.366;2022-07-04T13:36:33;30.20;99.90
20481;DHT22;10399;50.754;3.366;2022-07-04T13:38:59;30.20;99.90
20481;DHT22;10399;50.754;3.366;2022-07-04T13:41:33;30.10;99.90
20481;DHT22;10399;50.754;3.366;2022-07-04T13:44:02;29.90;99.90
20481;DHT22;10399;50.754;3.366;2022-07-04T13:46:29;29.90;99.90
20481;DHT22;10399;50.754;3.366;2022-07-04T13:48:56;29.60;99.90
20481;DHT22;10399;50.754;3.366;2022-07-04T13:51:23;29.20;99.90
20481;DHT22;10399;50.754;3.366;2022-07-04T13:53:50;29.50;99.90
20481;DHT22;10399;50.754;3.366;2022-07-04T13:56:17;29.70;99.90
20481;DHT22;10399;50.754;3.366;2022-07-04T13:58:45;29.70;99.90
20481;DHT22;10399;50.754;3.366;2022-07-04T14:01:13;29.40;99.90
20481;DHT22;10399;50.754;3.366;2022-07-04T14:03:49;29.40;99.90
20481;DHT22;10399;50.754;3.366;2022-07-04T14:06:17;29.30;99.90
20481;DHT22;10399;50.754;3.366;2022-07-04T14:08:45;29.80;99.90
20481;DHT22;10399;50.754;3.366;2022-07-04T14:11:13;30.20;99.90
20481;DHT22;10399;50.754;3.366;2022-07-04T14:13:40;30.20;99.90
20481;DHT22;10399;50.754;3.366;2022-07-04T14:16:07;30.10;99.40
20481;DHT22;10399;50.754;3.366;2022-07-04T14:18:34;30.10;98.80
20481;DHT22;10399;50.754;3.366;2022-07-04T14:21:02;30.20;99.30
20481;DHT22;10399;50.754;3.366;2022-07-04T14:23:29;29.60;99.70
20481;DHT22;10399;50.754;3.366;2022-07-04T14:26:10;29.00;99.90
20481;DHT22;10399;50.754;3.366;2022-07-04T14:28:38;28.50;99.90
20481;DHT22;10399;50.754;3.366;2022-07-04T14:31:05;28.50;99.90
20481;DHT22;10399;50.754;3.366;2022-07-04T14:33:33;28.70;99.90
20481;DHT22;10399;50.754;3.366;2022-07-04T14:36:01;28.80;99.90
20481;DHT22;10399;50.754;3.366;2022-07-04T14:38:29;29.10;99.90
20481;DHT22;10399;50.754;3.366;2022-07-04T14:40:56;29.50;99.90
20481;DHT22;10399;50.754;3.366;2022-07-04T14:43:23;29.70;99.30
20481;DHT22;10399;50.754;3.366;2022-07-04T14:45:50;29.40;99.60
20481;DHT22;10399;50.754;3.366;2022-07-04T14:48:17;29.40;99.30
20481;DHT22;10399;50.754;3.366;2022-07-04T14:50:44;29.20;99.30
20481;DHT22;10399;50.754;3.366;2022-07-04T14:53:11;29.30;99.60
20481;DHT22;10399;50.754;3.366;2022-07-04T14:55:38;29.40;99.90
20481;DHT22;10399;50.754;3.366;2022-07-04T14:58:05;29.50;99.90
20481;DHT22;10399;50.754;3.366;2022-07-04T15:00:33;29.30;99.90
20481;DHT22;10399;50.754;3.366;2022-07-04T15:03:00;29.10;99.90
20481;DHT22;10399;50.754;3.366;2022-07-04T15:05:27;28.60;99.90
20481;DHT22;10399;50.754;3.366;2022-07-04T15:07:53;28.90;99.90
20481;DHT22;10399;50.754;3.366;2022-07-04T15:10:25;28.70;99.90
20481;DHT22;10399;50.754;3.366;2022-07-04T15:13:12;29.00;99.90
20481;DHT22;10399;50.754;3.366;2022-07-04T15:15:40;29.30;99.90
20481;DHT22;10399;50.754;3.366;2022-07-04T15:18:11;29.60;99.90
20481;DHT22;10399;50.754;3.366;2022-07-04T15:20:39;29.80;99.90
20481;DHT22;10399;50.754;3.366;2022-07-04T15:23:24;30.30;99.90
20481;DHT22;10399;50.754;3.366;2022-07-04T15:26:10;30.40;99.90
20481;DHT22;10399;50.754;3.366;2022-07-04T15:28:37;29.70;99.90
20481;DHT22;10399;50.754;3.366;2022-07-04T15:31:04;28.80;99.90
20481;DHT22;10399;50.754;3.366;2022-07-04T15:33:31;28.80;99.90
20481;DHT22;10399;50.754;3.366;2022-07-04T15:35:58;29.00;99.90
20481;DHT22;10399;50.754;3.366;2022-07-04T15:38:25;28.80;99.90
20481;DHT22;10399;50.754;3.366;2022-07-04T15:40:55;28.80;99.90
20481;DHT22;10399;50.754;3.366;2022-07-04T15:43:22;28.40;99.90
20481;DHT22;10399;50.754;3.366;2022-07-04T15:45:49;28.20;99.90
20481;DHT22;10399;50.754;3.366;2022-07-04T15:48:16;28.40;99.90
20481;DHT22;10399;50.754;3.366;2022-07-04T15:58:48;28.60;99.90
20481;DHT22;10399;50.754;3.366;2022-07-04T16:01:16;28.80;99.90
20481;DHT22;10399;50.754;3.366;2022-07-04T16:03:43;29.20;99.90
20481;DHT22;10399;50.754;3.366;2022-07-04T16:06:10;29.60;99.90
20481;DHT22;10399;50.754;3.366;2022-07-04T16:11:08;29.90;99.90
20481;DHT22;10399;50.754;3.366;2022-07-04T16:13:36;30.20;99.90
20481;DHT22;10399;50.754;3.366;2022-07-04T16:16:03;30.40;99.90
20481;DHT22;10399;50.754;3.366;2022-07-04T16:18:30;30.30;99.70
20481;DHT22;10399;50.754;3.366;2022-07-04T16:20:57;30.50;99.90
20481;DHT22;10399;50.754;3.366;2022-07-04T16:23:24;30.40;98.80
20481;DHT22;10399;50.754;3.366;2022-07-04T16:26:00;30.00;99.50
20481;DHT22;10399;50.754;3.366;2022-07-04T16:28:27;29.80;98.80
20481;DHT22;10399;50.754;3.366;2022-07-04T16:30:54;29.70;99.00
20481;DHT22;10399;50.754;3.366;2022-07-04T16:33:21;29.50;99.90